Time;durP1;ratioP1;P1;durP2;ratioP2;P2;SDS_P1;SDS_P2;PMS_P1;PMS_P2;Temp;Humidity;BMP_temperature;BMP_pressure;BME280_temperature;BME280_humidity;BME280_pressure;Samples;Min_cycle;Max_cycle;Signal;HPM_P1;HPM_P2
2023/07/26 00:02:00;;;;;;;9.95;7.65;;;;;;;28.99;57.20;100336.72;5095744;28;20023;-87
2023/07/26 00:04:26;;;;;;;10.00;7.78;;;;;;;28.60;57.31;100270.63;5101184;28;20031;-87
2023/07/26 00:06:51;;;;;;;9.25;7.85;;;;;;;28.99;56.92;100340.28;5100413;28;20032;-87
2023/07/26 00:09:18;;;;;;;11.23;7.82;;;;;;;28.43;57.20;100246.91;5081122;28;20025;-88
2023/07/26 00:11:46;;;;;;;10.75;7.85;;;;;;;28.67;57.25;100275.84;5090025;28;20039;-88
2023/07/26 00:14:13;;;;;;;9.65;7.70;;;;;;;28.51;57.08;100254.78;5099570;28;20718;-88
2023/07/26 00:16:39;;;;;;;10.75;7.97;;;;;;;28.76;57.36;100286.31;5087654;28;20039;-88
2023/07/26 00:19:05;;;;;;;13.80;8.88;;;;;;;28.61;57.43;100247.34;5095565;28;20085;-88
2023/07/26 00:21:32;;;;;;;11.73;8.25;;;;;;;28.70;57.48;100260.53;5094047;28;20032;-88
2023/07/26 00:23:59;;;;;;;13.15;8.32;;;;;;;28.41;57.45;100221.91;5093315;28;20461;-88
2023/07/26 00:26:25;;;;;;;10.80;8.48;;;;;;;28.41;57.17;100216.53;5076540;28;20107;-88
2023/07/26 00:28:51;;;;;;;11.95;8.13;;;;;;;28.60;57.28;100250.97;5096088;28;20028;-90
2023/07/26 00:31:17;;;;;;;11.70;8.27;;;;;;;28.68;57.58;100256.09;5095603;28;20028;-90
2023/07/26 00:33:44;;;;;;;11.80;8.35;;;;;;;28.93;57.46;100293.88;5091312;28;20024;-87
2023/07/26 00:36:10;;;;;;;10.85;8.00;;;;;;;28.57;57.51;100233.09;5097938;28;20111;-89
2023/07/26 00:38:38;;;;;;;10.00;8.20;;;;;;;28.62;57.38;100244.63;5090707;28;20108;-90
2023/07/26 00:41:05;;;;;;;10.05;7.75;;;;;;;28.71;57.36;100269.47;5093428;28;20466;-88
2023/07/26 00:43:34;;;;;;;10.85;8.20;;;;;;;28.35;57.46;100205.09;5096241;28;20076;-90
2023/07/26 00:46:00;;;;;;;10.52;8.15;;;;;;;28.75;57.40;100265.75;5092308;28;20031;-87
2023/07/26 00:48:26;;;;;;;11.90;8.27;;;;;;;28.46;57.37;100218.19;5085730;28;20028;-88
2023/07/26 00:50:52;;;;;;;10.43;8.40;;;;;;;28.41;57.34;100221.91;5100766;28;20031;-87
2023/07/26 00:53:18;;;;;;;11.15;7.97;;;;;;;28.70;57.72;100268.59;5082516;28;20421;-87
2023/07/26 00:55:47;;;;;;;10.98;8.00;;;;;;;28.66;57.86;100255.25;5091876;28;20111;-88
2023/07/26 00:58:14;;;;;;;10.77;8.05;;;;;;;28.68;57.39;100262.38;5095073;28;20024;-88
2023/07/26 01:00:41;;;;;;;10.85;8.10;;;;;;;28.52;57.44;100237.72;5090537;28;20028;-90
2023/07/26 01:03:11;;;;;;;11.10;7.85;;;;;;;28.89;57.57;100297.59;5076240;28;20510;-87
2023/07/26 01:05:46;;;;;;;11.60;8.30;;;;;;;28.52;57.30;100226.13;5081754;28;20097;-87
2023/07/26 01:08:34;;;;;;;12.00;8.50;;;;;;;28.48;57.64;100227.97;5078729;28;20046;-90
2023/07/26 01:11:05;;;;;;;11.52;8.15;;;;;;;28.40;57.53;100217.44;5092269;28;20040;-90
2023/07/26 01:13:57;;;;;;;13.07;8.13;;;;;;;28.65;57.58;100251.69;5086331;28;20040;-88
2023/07/26 01:16:26;;;;;;;11.38;7.93;;;;;;;28.58;57.27;100237.56;5106400;28;20107;-88
2023/07/26 01:18:52;;;;;;;11.10;7.65;;;;;;;28.59;57.31;100241.13;5101003;28;20032;-87
2023/07/26 01:21:19;;;;;;;11.30;8.05;;;;;;;28.55;57.21;100234.06;5104851;28;20035;-88
2023/07/26 01:23:45;;;;;;;10.30;7.47;;;;;;;28.67;57.25;100248.97;5082751;28;20465;-87
2023/07/26 01:26:25;;;;;;;10.25;8.27;;;;;;;28.39;57.25;100207.63;5095776;28;20027;-90
2023/07/26 01:28:51;;;;;;;12.75;7.97;;;;;;;28.79;57.25;100284.44;5097118;28;20024;-87
2023/07/26 01:31:19;;;;;;;10.13;7.45;;;;;;;28.77;57.28;100280.91;5096160;28;20401;-87
2023/07/26 01:33:48;;;;;;;9.32;7.30;;;;;;;28.39;57.16;100217.50;5087625;28;20484;-87
2023/07/26 01:36:14;;;;;;;11.85;7.93;;;;;;;28.52;57.13;100236.88;5097503;28;20497;-88
2023/07/26 01:38:43;;;;;;;11.13;7.30;;;;;;;28.39;57.39;100218.38;5104039;28;20019;-88
2023/07/26 01:41:09;;;;;;;9.63;7.68;;;;;;;28.72;57.11;100273.88;5093559;28;20019;-87
2023/07/26 01:43:36;;;;;;;11.00;7.80;;;;;;;28.79;57.18;100278.19;5090296;28;20111;-88
2023/07/26 01:46:02;;;;;;;10.07;7.72;;;;;;;28.47;57.14;100222.63;5105178;28;20480;-88
2023/07/26 01:48:28;;;;;;;12.77;8.18;;;;;;;28.57;57.12;100241.16;5110990;27;20085;-87
2023/07/26 01:50:54;;;;;;;11.02;7.85;;;;;;;28.82;57.17;100286.13;5110227;28;20076;-89
2023/07/26 01:53:19;;;;;;;10.75;6.97;;;;;;;28.61;56.92;100241.97;5093034;28;20035;-89
2023/07/26 01:55:46;;;;;;;10.75;7.50;;;;;;;28.42;56.64;100203.97;5103237;28;20024;-88
2023/07/26 01:58:12;;;;;;;10.07;7.85;;;;;;;28.57;57.01;100224.16;5083391;28;20016;-88
2023/07/26 02:00:37;;;;;;;10.70;7.78;;;;;;;28.53;56.81;100214.44;5099548;28;20023;-86
2023/07/26 02:03:03;;;;;;;10.07;7.47;;;;;;;28.81;56.88;100261.06;5091071;28;20051;-87
2023/07/26 02:05:30;;;;;;;10.68;7.72;;;;;;;28.47;56.99;100202.06;5093066;28;20023;-87
2023/07/26 02:07:55;;;;;;;10.85;7.47;;;;;;;28.60;56.98;100214.22;5090618;28;20110;-87
2023/07/26 02:10:22;;;;;;;12.18;7.97;;;;;;;28.78;57.08;100246.84;5112603;27;20543;-87
2023/07/26 02:12:48;;;;;;;10.25;7.55;;;;;;;28.44;56.88;100196.75;5090799;28;20027;-87
2023/07/26 02:15:15;;;;;;;10.15;7.57;;;;;;;28.49;56.82;100194.88;5108860;28;20031;-86
2023/07/26 02:17:41;;;;;;;9.75;7.70;;;;;;;28.43;57.07;100193.19;5095112;28;20495;-87
2023/07/26 02:20:08;;;;;;;12.68;8.15;;;;;;;28.52;56.78;100210.88;5079261;28;20048;-87
2023/07/26 02:22:34;;;;;;;9.45;7.40;;;;;;;28.76;56.78;100246.88;5105293;28;20028;-87
2023/07/26 02:24:59;;;;;;;9.05;7.07;;;;;;;28.61;56.64;100226.72;5085574;28;20472;-86
2023/07/26 02:27:30;;;;;;;11.52;7.43;;;;;;;28.54;56.84;100214.41;5084400;28;20027;-87
2023/07/26 02:29:56;;;;;;;10.35;7.43;;;;;;;28.26;56.60;100162.34;5101817;28;20046;-87
2023/07/26 02:32:22;;;;;;;9.82;7.47;;;;;;;28.35;56.84;100175.53;5088993;28;20151;-89
2023/07/26 02:34:47;;;;;;;10.15;7.78;;;;;;;28.39;56.53;100172.72;5102585;28;20026;-89
2023/07/26 02:37:14;;;;;;;9.90;7.90;;;;;;;28.40;56.30;100182.50;5093487;28;20536;-86
2023/07/26 02:39:40;;;;;;;12.30;7.43;;;;;;;28.52;56.42;100212.69;5104307;28;20099;-87
2023/07/26 02:42:05;;;;;;;9.82;7.07;;;;;;;28.48;56.46;100197.56;5095057;28;20062;-87
2023/07/26 02:44:31;;;;;;;9.02;6.68;;;;;;;28.25;56.50;100149.88;5087316;28;20027;-87
2023/07/26 02:47:01;;;;;;;10.68;7.47;;;;;;;28.26;56.49;100151.63;5094494;28;20023;-86
2023/07/26 02:49:28;;;;;;;10.63;7.50;;;;;;;28.42;56.50;100174.44;5111858;28;20051;-89
2023/07/26 02:51:55;;;;;;;11.02;8.30;;;;;;;28.15;56.66;100131.34;5108546;28;20040;-90
2023/07/26 02:54:23;;;;;;;10.35;7.38;;;;;;;28.23;56.58;100153.47;5099281;28;20057;-87
2023/07/26 02:56:48;;;;;;;10.05;6.97;;;;;;;28.71;56.70;100243.47;5088499;28;20032;-88
2023/07/26 02:59:14;;;;;;;9.38;7.32;;;;;;;28.55;56.39;100205.41;5086938;28;20028;-87
2023/07/26 03:01:40;;;;;;;8.20;6.88;;;;;;;28.71;56.30;100238.09;5090591;28;20020;-88
2023/07/26 03:04:08;;;;;;;8.07;6.93;;;;;;;28.20;56.42;100148.19;5088561;28;20445;-87
2023/07/26 03:06:34;;;;;;;10.15;7.60;;;;;;;28.30;56.24;100155.97;5099644;28;20020;-87
2023/07/26 03:09:00;;;;;;;10.15;7.72;;;;;;;28.50;56.60;100193.91;5077409;28;20028;-87
2023/07/26 03:11:25;;;;;;;10.30;8.18;;;;;;;28.59;56.69;100216.94;5091923;28;20035;-86
2023/07/26 03:14:00;;;;;;;10.85;7.60;;;;;;;28.25;56.58;100156.13;5102105;28;20028;-87
2023/07/26 03:16:25;;;;;;;9.98;7.38;;;;;;;28.61;56.73;100217.78;5096849;28;20671;-88
2023/07/26 03:18:51;;;;;;;8.38;7.10;;;;;;;28.32;56.53;100171.16;5104348;27;20091;-86
2023/07/26 03:21:19;;;;;;;10.75;7.53;;;;;;;28.43;56.30;100190.50;5077662;28;20403;-86
2023/07/26 03:23:45;;;;;;;8.15;6.95;;;;;;;28.42;56.36;100194.09;5098651;28;20058;-85
2023/07/26 03:26:18;;;;;;;9.60;7.03;;;;;;;28.44;56.08;100186.00;5103639;27;20102;-88
2023/07/26 03:28:44;;;;;;;10.20;7.25;;;;;;;27.99;56.12;100113.91;5082089;28;20123;-85
2023/07/26 03:31:10;;;;;;;9.70;7.40;;;;;;;28.30;56.02;100175.69;5097478;28;20493;-87
2023/07/26 03:33:35;;;;;;;8.40;7.00;;;;;;;28.48;56.04;100205.59;5114440;28;20041;-87
2023/07/26 03:36:01;;;;;;;8.82;7.22;;;;;;;28.52;55.82;100218.94;5098477;28;20519;-90
2023/07/26 03:38:27;;;;;;;9.48;7.50;;;;;;;28.65;56.16;100234.69;5091470;28;20024;-85
2023/07/26 03:40:52;;;;;;;10.48;7.60;;;;;;;28.43;56.29;100193.19;5107779;28;20023;-86
2023/07/26 03:43:20;;;;;;;9.18;7.25;;;;;;;28.23;56.34;100156.16;5109701;28;20032;-86
2023/07/26 03:45:49;;;;;;;11.23;7.63;;;;;;;28.19;56.41;100150.91;5085975;28;20036;-87
2023/07/26 03:48:17;;;;;;;10.23;7.82;;;;;;;28.41;55.98;100180.75;5113022;28;20028;-87
2023/07/26 03:50:45;;;;;;;12.95;7.72;;;;;;;27.99;56.25;100108.56;5107255;28;20055;-87
2023/07/26 03:53:11;;;;;;;12.32;7.78;;;;;;;28.48;56.23;100190.38;5112548;28;20077;-88
2023/07/26 03:55:37;;;;;;;10.55;8.00;;;;;;;28.27;56.38;100159.63;5094265;28;20483;-87
2023/07/26 03:58:03;;;;;;;9.95;6.95;;;;;;;28.39;56.44;100186.16;5089003;28;20044;-87
2023/07/26 04:00:28;;;;;;;10.23;7.43;;;;;;;28.28;55.96;100168.56;5100121;28;20413;-87
2023/07/26 04:02:54;;;;;;;9.10;7.28;;;;;;;28.49;56.25;100202.00;5102851;28;20028;-87
2023/07/26 04:05:20;;;;;;;9.02;7.22;;;;;;;28.39;56.32;100187.97;5097229;28;20024;-87
2023/07/26 04:07:45;;;;;;;10.65;7.65;;;;;;;28.48;56.30;100208.28;5093158;28;20062;-87
2023/07/26 04:10:11;;;;;;;10.43;7.65;;;;;;;28.29;56.21;100175.72;5098107;28;20089;-87
2023/07/26 04:12:36;;;;;;;10.18;7.38;;;;;;;28.32;56.41;100179.19;5098627;28;20455;-87
2023/07/26 04:15:02;;;;;;;9.60;7.00;;;;;;;28.03;56.42;100137.06;5094634;28;20035;-86
2023/07/26 04:17:31;;;;;;;8.73;7.18;;;;;;;28.17;56.16;100158.13;5096482;28;20032;-86
2023/07/26 04:19:57;;;;;;;10.07;7.22;;;;;;;28.18;56.05;100155.41;5094030;28;20016;-86
2023/07/26 04:22:22;;;;;;;10.80;7.50;;;;;;;28.27;56.18;100166.81;5099953;28;20032;-86
2023/07/26 04:24:48;;;;;;;9.35;7.53;;;;;;;28.33;56.46;100178.25;5097456;28;20028;-86
2023/07/26 04:27:27;;;;;;;10.75;7.80;;;;;;;28.15;56.21;100154.63;5105836;28;20016;-86
2023/07/26 04:29:55;;;;;;;11.70;7.38;;;;;;;28.19;56.18;100156.28;5100774;28;20035;-86
2023/07/26 04:32:21;;;;;;;9.73;7.22;;;;;;;28.55;56.46;100226.88;5091737;28;20400;-86
2023/07/26 04:34:50;;;;;;;11.65;7.65;;;;;;;28.53;56.30;100215.34;5075724;28;20032;-85
2023/07/26 04:37:35;;;;;;;9.85;8.07;;;;;;;28.06;56.46;100146.84;5074883;28;20093;-88
2023/07/26 04:40:01;;;;;;;8.40;6.80;;;;;;;28.33;56.04;100193.50;5075992;28;20469;-88
2023/07/26 04:42:27;;;;;;;9.18;7.28;;;;;;;28.53;56.38;100230.56;5090706;28;20032;-88
2023/07/26 04:44:52;;;;;;;10.10;7.85;;;;;;;28.38;56.07;100194.25;5088927;28;20046;-88
2023/07/26 04:47:31;;;;;;;10.82;7.05;;;;;;;28.11;55.99;100144.88;5080518;28;20483;-87
2023/07/26 04:49:57;;;;;;;9.20;7.05;;;;;;;28.33;55.92;100189.00;5093534;28;20051;-88
2023/07/26 04:52:24;;;;;;;9.40;7.10;;;;;;;28.20;55.98;100156.25;5085469;28;20412;-89
2023/07/26 04:54:49;;;;;;;9.27;7.35;;;;;;;28.18;55.81;100157.22;5092892;28;20028;-87
2023/07/26 04:57:48;;;;;;;10.50;7.70;;;;;;;28.28;55.82;100174.84;5092711;28;20100;-90
2023/07/26 05:00:23;;;;;;;7.85;6.65;;;;;;;27.92;55.92;100113.22;5053629;28;20035;-89
2023/07/26 05:03:01;;;;;;;11.70;7.10;;;;;;;28.36;56.09;100190.72;5087731;28;20100;-90
2023/07/26 05:05:28;;;;;;;9.32;7.38;;;;;;;27.96;55.71;100108.63;5092725;28;20106;-91
2023/07/26 05:07:55;;;;;;;10.48;7.28;;;;;;;28.09;55.76;100131.53;5084452;28;20043;-87
2023/07/26 05:10:20;;;;;;;7.78;6.70;;;;;;;28.19;55.74;100143.78;5093529;28;20118;-87
2023/07/26 05:12:46;;;;;;;9.35;7.32;;;;;;;28.52;55.87;100193.88;5078743;28;20153;-87
2023/07/26 05:15:12;;;;;;;11.85;8.20;;;;;;;28.24;55.80;100151.69;5096851;28;20031;-87
2023/07/26 05:17:37;;;;;;;9.40;6.95;;;;;;;28.35;55.87;100172.84;5096607;28;20030;-87
2023/07/26 05:20:03;;;;;;;9.80;7.15;;;;;;;28.29;56.18;100165.84;5102904;28;20084;-86
2023/07/26 05:22:29;;;;;;;10.43;7.38;;;;;;;28.16;56.17;100141.16;5091561;28;20028;-88
2023/07/26 05:24:55;;;;;;;19.48;10.50;;;;;;;28.35;57.99;100199.72;5084463;28;20032;-89
2023/07/26 05:27:23;;;;;;;21.65;11.73;;;;;;;28.19;59.43;100176.00;5087521;28;20115;-91
2023/07/26 05:29:49;;;;;;;13.63;8.82;;;;;;;28.15;57.33;100181.47;5096597;27;20048;-86
2023/07/26 05:32:14;;;;;;;14.55;9.68;;;;;;;28.21;57.03;100176.81;5096066;28;20108;-86
2023/07/26 05:34:40;;;;;;;16.77;9.43;;;;;;;28.17;56.49;100164.41;5102536;28;20038;-88
2023/07/26 05:37:06;;;;;;;14.45;8.55;;;;;;;28.11;55.52;100144.88;5097992;28;20042;-85
2023/07/26 05:39:32;;;;;;;15.65;8.98;;;;;;;28.34;54.43;100165.72;5096818;28;20473;-86
2023/07/26 05:41:57;;;;;;;11.90;8.43;;;;;;;28.27;53.53;100150.72;5099702;28;20089;-86
2023/07/26 05:44:23;;;;;;;12.35;8.30;;;;;;;28.22;53.10;100140.09;5092589;28;20028;-85
2023/07/26 05:46:49;;;;;;;11.98;8.05;;;;;;;28.27;52.44;100118.50;5102855;28;20463;-86
2023/07/26 05:49:14;;;;;;;12.88;8.23;;;;;;;28.60;51.95;100171.25;5105402;28;20024;-87
2023/07/26 05:51:40;;;;;;;11.20;8.30;;;;;;;28.41;51.71;100121.66;5077279;28;20027;-86
2023/07/26 05:54:06;;;;;;;10.05;7.70;;;;;;;28.70;51.55;100171.84;5093771;28;20058;-86
2023/07/26 05:56:31;;;;;;;11.25;7.43;;;;;;;28.74;51.07;100153.81;5106492;27;20035;-84
2023/07/26 05:58:57;;;;;;;12.15;7.40;;;;;;;28.85;50.78;100170.50;5100505;28;20477;-85
2023/07/26 06:01:23;;;;;;;9.80;7.10;;;;;;;28.92;50.49;100165.81;5105224;27;20081;-86
2023/07/26 06:03:48;;;;;;;9.25;7.05;;;;;;;28.56;50.51;100126.59;5083253;28;20065;-85
2023/07/26 06:06:14;;;;;;;9.48;6.78;;;;;;;28.72;50.18;100131.47;5093330;28;20404;-85
2023/07/26 06:08:40;;;;;;;7.95;6.65;;;;;;;28.87;50.18;100146.25;5105146;28;20528;-84
2023/07/26 06:11:05;;;;;;;9.75;6.63;;;;;;;28.91;50.01;100147.91;5095243;28;20036;-84
2023/07/26 06:13:31;;;;;;;9.88;7.15;;;;;;;28.61;49.60;100086.13;5078626;28;20485;-85
2023/07/26 06:15:57;;;;;;;9.50;6.32;;;;;;;28.99;49.05;100121.66;5103716;28;20032;-86
2023/07/26 06:18:27;;;;;;;8.50;6.47;;;;;;;29.08;49.53;100158.13;5091342;28;20803;-86
2023/07/26 06:20:54;;;;;;;8.75;6.65;;;;;;;29.16;49.12;100150.72;5096885;28;20463;-89
2023/07/26 06:23:22;;;;;;;8.07;6.22;;;;;;;29.19;48.99;100147.94;5094441;28;20044;-86
2023/07/26 06:26:00;;;;;;;8.15;6.68;;;;;;;29.16;48.85;100134.59;5095450;28;20484;-91
2023/07/26 06:28:28;;;;;;;7.47;6.00;;;;;;;28.75;48.79;100086.59;5080654;28;20035;-87
2023/07/26 06:30:55;;;;;;;9.50;6.40;;;;;;;29.00;48.52;100108.19;5095209;28;20035;-87
2023/07/26 06:33:21;;;;;;;8.10;6.28;;;;;;;29.17;48.55;100145.31;5092309;28;20051;-86
2023/07/26 06:35:47;;;;;;;8.00;6.13;;;;;;;29.17;48.58;100142.63;5082362;28;20658;-86
2023/07/26 06:38:12;;;;;;;7.90;6.22;;;;;;;29.05;48.13;100104.47;5092539;28;20394;-87
2023/07/26 06:40:38;;;;;;;7.13;5.72;;;;;;;29.09;48.20;100117.75;5107515;27;20107;-86
2023/07/26 06:43:05;;;;;;;6.97;5.90;;;;;;;28.90;48.43;100082.53;5094177;28;20412;-86
2023/07/26 06:45:31;;;;;;;6.85;5.60;;;;;;;29.11;48.07;100117.75;5091621;28;20078;-86
2023/07/26 06:47:57;;;;;;;7.57;5.95;;;;;;;29.13;47.95;100106.00;5079126;28;20036;-87
2023/07/26 06:50:22;;;;;;;6.97;5.60;;;;;;;29.30;48.00;100161.91;5094089;28;20470;-86
2023/07/26 06:52:51;;;;;;;6.93;5.57;;;;;;;29.03;47.97;100094.63;5103724;28;20056;-88
2023/07/26 06:55:26;;;;;;;7.32;5.88;;;;;;;29.37;47.65;100152.69;5103210;28;20488;-86
2023/07/26 06:58:09;;;;;;;6.35;5.60;;;;;;;29.06;47.40;100088.25;5090650;28;20027;-86
2023/07/26 07:00:35;;;;;;;7.38;5.85;;;;;;;29.03;47.51;100085.69;5081765;28;20020;-87
2023/07/26 07:03:07;;;;;;;6.00;5.25;;;;;;;29.17;47.36;100094.22;5094815;28;20032;-87
2023/07/26 07:05:35;;;;;;;6.80;5.40;;;;;;;29.09;47.47;100093.56;5085160;28;20062;-87
2023/07/26 07:08:01;;;;;;;8.02;6.07;;;;;;;29.21;47.16;100109.31;5099986;28;20853;-89
2023/07/26 07:10:28;;;;;;;6.88;5.43;;;;;;;29.12;46.96;100077.34;5093722;28;20106;-85
2023/07/26 07:12:53;;;;;;;7.85;5.65;;;;;;;29.25;46.90;100082.31;5103781;28;20489;-86
2023/07/26 07:15:28;;;;;;;6.10;5.38;;;;;;;29.44;46.79;100126.47;5091761;28;20038;-87
2023/07/26 07:18:19;;;;;;;6.93;5.43;;;;;;;29.47;47.01;100125.50;5094261;28;20074;-86
2023/07/26 07:20:45;;;;;;;7.55;5.90;;;;;;;29.26;47.08;100098.41;5094055;28;20477;-87
2023/07/26 07:23:47;;;;;;;7.82;5.50;;;;;;;29.45;46.99;100121.97;5092327;28;20028;-87
2023/07/26 07:26:13;;;;;;;7.82;5.30;;;;;;;29.39;46.82;100107.78;5096581;28;20032;-87
2023/07/26 07:28:39;;;;;;;7.38;5.78;;;;;;;29.22;46.55;100064.47;5096553;28;20339;-86
2023/07/26 07:31:06;;;;;;;6.85;5.50;;;;;;;29.28;46.20;100076.84;5091601;27;20498;-87
2023/07/26 07:33:31;;;;;;;8.55;5.97;;;;;;;29.50;46.31;100110.09;5103057;28;20024;-87
2023/07/26 07:35:57;;;;;;;7.30;6.20;;;;;;;29.32;46.42;100090.13;5096108;28;20027;-86
2023/07/26 07:38:24;;;;;;;7.13;5.50;;;;;;;29.20;46.16;100074.41;5094172;28;20040;-84
2023/07/26 07:40:49;;;;;;;7.82;5.82;;;;;;;29.07;46.25;100057.78;5092525;28;20031;-87
2023/07/26 07:43:18;;;;;;;6.07;5.45;;;;;;;29.51;45.71;100119.97;5087743;28;20043;-88
2023/07/26 07:45:51;;;;;;;7.18;5.65;;;;;;;28.92;45.32;100005.41;5080234;28;20492;-85
2023/07/26 07:48:17;;;;;;;6.15;5.43;;;;;;;29.40;45.55;100096.13;5088791;28;20024;-86
2023/07/26 07:50:43;;;;;;;7.63;5.50;;;;;;;29.11;45.03;100035.28;5094398;28;20028;-86
2023/07/26 07:53:09;;;;;;;7.03;5.63;;;;;;;29.27;45.18;100070.56;5103036;28;20039;-86
2023/07/26 07:55:38;;;;;;;7.45;5.95;;;;;;;29.13;45.04;100062.97;5092822;28;20673;-87
2023/07/26 07:58:04;;;;;;;6.75;5.30;;;;;;;28.98;44.95;100029.41;5104629;28;20051;-88
2023/07/26 08:00:30;;;;;;;7.20;5.93;;;;;;;29.08;44.95;100032.63;5106407;28;20046;-85
2023/07/26 08:02:56;;;;;;;7.22;5.57;;;;;;;29.49;44.86;100111.06;5104012;28;20107;-85
2023/07/26 08:05:24;;;;;;;7.50;5.18;;;;;;;29.14;44.54;100045.03;5100995;28;20035;-88
2023/07/26 08:07:53;;;;;;;6.97;5.68;;;;;;;29.49;44.74;100111.06;5093563;28;20024;-88
2023/07/26 08:10:20;;;;;;;6.78;5.63;;;;;;;29.47;44.55;100099.47;5094175;28;20028;-87
2023/07/26 08:12:47;;;;;;;8.23;6.15;;;;;;;29.49;44.30;100105.69;5093957;28;20499;-88
2023/07/26 08:15:13;;;;;;;6.82;5.13;;;;;;;29.43;44.43;100104.06;5096123;28;20030;-89
2023/07/26 08:17:39;;;;;;;7.43;5.80;;;;;;;29.30;44.34;100091.13;5093411;28;20023;-84
2023/07/26 08:20:05;;;;;;;7.70;5.80;;;;;;;29.31;44.34;100087.47;5094856;28;20576;-82
2023/07/26 08:22:31;;;;;;;8.77;5.47;;;;;;;29.47;44.12;100101.28;5092908;28;20107;-83
2023/07/26 08:24:57;;;;;;;8.60;5.85;;;;;;;29.33;44.15;100080.22;5092811;28;20024;-85
2023/07/26 08:27:23;;;;;;;6.65;5.40;;;;;;;29.21;44.16;100060.00;5091286;28;20020;-85
2023/07/26 08:29:48;;;;;;;5.70;4.82;;;;;;;29.49;43.72;100077.91;5093181;28;20448;-83
2023/07/26 08:32:14;;;;;;;6.53;5.20;;;;;;;29.56;43.89;100099.13;5093733;28;20028;-83
2023/07/26 08:34:39;;;;;;;6.97;5.53;;;;;;;29.22;43.92;100043.84;5091590;28;20032;-84
2023/07/26 08:37:05;;;;;;;6.38;5.15;;;;;;;29.52;43.63;100097.47;5098315;28;20023;-82
2023/07/26 08:39:34;;;;;;;6.30;5.00;;;;;;;29.38;43.66;100072.88;5101264;28;20103;-84
2023/07/26 08:42:00;;;;;;;8.93;5.82;;;;;;;29.49;43.70;100094.03;5096504;28;20031;-82
2023/07/26 08:44:26;;;;;;;6.30;5.28;;;;;;;29.63;43.55;100100.69;5092632;28;20099;-84
2023/07/26 08:46:52;;;;;;;7.22;5.43;;;;;;;29.47;43.39;100083.34;5095015;28;20122;-82
2023/07/26 08:49:18;;;;;;;5.63;4.85;;;;;;;29.45;43.60;100087.88;5099866;28;20722;-82
2023/07/26 08:51:45;;;;;;;6.43;5.50;;;;;;;29.35;43.44;100060.41;5090911;28;20039;-85
2023/07/26 08:54:10;;;;;;;7.38;5.07;;;;;;;29.56;43.18;100084.81;5097584;28;20074;-83
2023/07/26 08:56:36;;;;;;;7.30;5.45;;;;;;;29.34;43.12;100058.69;5092268;28;20051;-83
2023/07/26 08:59:02;;;;;;;7.30;5.38;;;;;;;29.60;43.00;100090.03;5091004;28;20035;-83
2023/07/26 09:01:29;;;;;;;8.10;5.53;;;;;;;29.57;43.15;100083.88;5090546;28;20043;-83
2023/07/26 09:03:55;;;;;;;6.70;4.93;;;;;;;29.56;42.84;100069.53;5092168;28;20104;-82
2023/07/26 09:06:20;;;;;;;6.25;5.30;;;;;;;29.59;42.85;100087.38;5090533;28;20102;-83
2023/07/26 09:08:46;;;;;;;6.53;5.30;;;;;;;29.66;42.88;100080.88;5095869;28;20035;-83
2023/07/26 09:11:20;;;;;;;6.65;5.05;;;;;;;29.64;42.71;100072.84;5100734;28;20019;-84
2023/07/26 09:13:55;;;;;;;7.32;5.20;;;;;;;29.57;42.82;100052.47;5104910;28;20019;-84
2023/07/26 09:16:21;;;;;;;9.07;5.47;;;;;;;29.53;42.92;100052.66;5100777;28;20027;-83
2023/07/26 09:19:04;;;;;;;8.05;5.38;;;;;;;29.62;43.07;100072.00;5100863;28;20402;-84
2023/07/26 09:21:34;;;;;;;9.30;5.22;;;;;;;29.45;43.01;100043.97;5101939;28;20031;-83
2023/07/26 09:24:07;;;;;;;7.78;5.45;;;;;;;29.43;43.17;100041.34;5091021;28;20024;-84
2023/07/26 09:26:41;;;;;;;8.32;6.10;;;;;;;29.22;42.88;99995.44;5091068;28;20031;-84
2023/07/26 09:29:15;;;;;;;7.03;5.63;;;;;;;29.76;43.00;100062.59;5088060;28;20031;-85
2023/07/26 09:31:44;;;;;;;9.55;5.75;;;;;;;29.57;43.06;100021.97;5094461;28;20028;-85
2023/07/26 09:34:29;;;;;;;8.93;5.75;;;;;;;29.73;43.22;100065.41;5085235;28;20515;-84
2023/07/26 09:36:56;;;;;;;7.57;5.97;;;;;;;29.51;43.19;100017.72;5098367;28;20636;-84
2023/07/26 09:39:33;;;;;;;9.63;6.40;;;;;;;29.80;43.11;100059.75;5089438;28;20085;-85
2023/07/26 09:42:09;;;;;;;8.32;5.90;;;;;;;29.67;43.02;100034.16;5092415;27;20023;-85
2023/07/26 09:44:37;;;;;;;6.93;5.63;;;;;;;29.53;43.09;100013.16;5101629;28;20035;-86
2023/07/26 09:47:18;;;;;;;8.35;5.60;;;;;;;29.73;43.02;100047.44;5086661;28;20421;-84
2023/07/26 09:50:04;;;;;;;9.63;6.35;;;;;;;29.74;43.09;100040.22;5107947;27;20553;-85
2023/07/26 09:52:42;;;;;;;7.45;5.55;;;;;;;29.26;42.75;99944.25;5094916;28;20039;-85
2023/07/26 09:55:10;;;;;;;9.02;5.70;;;;;;;29.28;42.60;99940.56;5091072;28;20036;-85
2023/07/26 09:57:35;;;;;;;7.50;5.35;;;;;;;29.58;42.61;99995.03;5089811;28;20048;-84
2023/07/26 10:00:01;;;;;;;7.90;5.65;;;;;;;29.73;42.35;100009.75;5095596;28;20024;-83
2023/07/26 10:02:27;;;;;;;8.05;5.40;;;;;;;29.81;42.22;100014.88;5079637;27;20115;-82
2023/07/26 10:04:58;;;;;;;8.25;5.80;;;;;;;29.86;42.12;100014.69;5097262;28;20028;-82
2023/07/26 10:07:26;;;;;;;8.75;5.57;;;;;;;29.50;42.23;99950.53;5084164;28;20491;-82
2023/07/26 10:09:52;;;;;;;6.75;5.57;;;;;;;29.45;42.41;99933.69;5085929;28;20028;-82
2023/07/26 10:12:22;;;;;;;9.43;6.00;;;;;;;29.51;42.40;99942.41;5102306;28;20027;-83
2023/07/26 10:14:55;;;;;;;8.25;5.30;;;;;;;29.73;42.21;99973.91;5099911;28;20024;-82
2023/07/26 10:17:21;;;;;;;7.13;5.72;;;;;;;29.64;42.28;99940.13;5082002;28;20503;-82
2023/07/26 10:19:54;;;;;;;8.88;5.43;;;;;;;29.86;42.35;99983.25;5086524;28;20370;-82
2023/07/26 10:22:21;;;;;;;9.30;6.03;;;;;;;29.93;42.29;99986.59;5101581;28;20028;-83
2023/07/26 10:24:48;;;;;;;9.18;5.78;;;;;;;29.82;42.02;99966.38;5097820;28;20027;-83
2023/07/26 10:27:14;;;;;;;8.93;6.18;;;;;;;29.58;42.09;99924.22;5093566;28;20023;-83
2023/07/26 10:29:41;;;;;;;8.77;5.95;;;;;;;29.90;42.13;99967.88;5095480;28;20406;-83
2023/07/26 10:32:11;;;;;;;9.18;6.05;;;;;;;29.93;42.10;99984.81;5096461;27;20024;-83
2023/07/26 10:34:42;;;;;;;9.32;6.10;;;;;;;29.71;42.11;99935.41;5096734;28;20044;-83
2023/07/26 10:37:36;;;;;;;10.43;6.45;;;;;;;29.96;42.18;99970.34;5102095;27;20032;-83
2023/07/26 10:40:38;;;;;;;8.70;6.05;;;;;;;29.96;42.22;99983.78;5102905;28;20161;-85
2023/07/26 10:43:19;;;;;;;10.70;6.35;;;;;;;30.05;42.08;99969.97;5097034;28;20042;-85
2023/07/26 10:45:46;;;;;;;8.50;6.30;;;;;;;29.73;42.03;99929.03;5104962;28;20475;-83
2023/07/26 10:51:32;;;;;;;8.25;6.15;;;;;;;29.46;41.90;99865.50;5091593;28;20122;-84
2023/07/26 10:54:36;;;;;;;9.05;6.38;;;;;;;29.73;41.67;99912.00;5102209;28;20036;-83
2023/07/26 10:57:40;;;;;;;9.85;5.90;;;;;;;30.07;41.70;99951.94;5095088;28;20032;-85
2023/07/26 11:00:17;;;;;;;9.85;6.38;;;;;;;29.92;41.58;99925.63;5097648;28;20507;-84
2023/07/26 11:03:17;;;;;;;9.57;6.45;;;;;;;30.08;41.56;99955.50;5095898;28;20123;-84
2023/07/26 11:05:55;;;;;;;9.18;6.47;;;;;;;29.84;41.50;99901.69;5101848;28;20061;-83
2023/07/26 11:08:40;;;;;;;10.10;6.78;;;;;;;30.03;41.55;99920.69;5097379;28;20031;-83
2023/07/26 11:11:18;;;;;;;10.07;6.60;;;;;;;29.84;41.46;99880.16;5102817;28;20035;-83
2023/07/26 11:13:50;;;;;;;10.10;6.63;;;;;;;29.87;41.56;99880.06;5100940;28;20127;-82
2023/07/26 11:16:32;;;;;;;8.90;6.60;;;;;;;29.76;41.50;99850.88;5072014;28;20051;-82
2023/07/26 11:19:04;;;;;;;11.55;6.85;;;;;;;30.14;41.38;99904.09;5090917;28;20128;-83
2023/07/26 11:21:40;;;;;;;;;;;;;;;;;;;;;
2023/07/26 11:24:10;;;;;;;11.07;7.20;;;;;;;29.82;41.46;99855.13;5106033;27;20510;-83
2023/07/26 11:26:44;;;;;;;10.30;6.95;;;;;;;29.76;41.47;99828.44;5103548;28;20084;-84
2023/07/26 11:29:13;;;;;;;14.57;8.20;;;;;;;29.97;41.60;99851.84;5094527;28;20405;-84
2023/07/26 11:31:51;;;;;;;11.80;7.78;;;;;;;29.99;41.58;99851.75;5098355;28;20150;-83
2023/07/26 11:34:23;;;;;;;13.32;8.05;;;;;;;29.94;41.78;99837.59;5075813;28;20038;-84
2023/07/26 11:36:49;;;;;;;12.52;7.57;;;;;;;29.83;41.41;99805.75;5091916;28;20030;-84